METAR v bližini

 

LJLJ - Ljubljana/Brnik, Slovenia
Oddaljenost od postaje: W 41km
Podatki zajeti: 25/01/2021 08:00
Pretežno oblačno
Pretežno oblačno
 Veter iz smeri WNW
Veter: WNW 6 km/h
Temperatura: -1°C
Rosišče: -2°C
Vlažnost: 93%
Tlak: 1001 hPa
Oblačnost: Pretežno oblačno
Vidljivost: 7 km
Podrobnosti o oblakih: Rahlo oblačno 61 m
Pretežno oblačno 244 m
2021/01/25 07:00 LJLJ 250700Z 29003KT 260V330 7000 FEW002 BKN008 M01/M02 Q1001 R30/29//95 NOSIG
LJMB - Maribor, Slovenia
Oddaljenost od postaje: NE 63km
Podatki zajeti: 25/01/2021 08:00
Megla ki zmrzuje, Delno oblačno
Megla ki zmrzuje, Delno oblačno
 Veter iz smeri spremenljiv
Veter: spremenljiv 4 km/h
Temperatura: -4°C
Rosišče: -4°C
Vlažnost: 100%
Tlak: 1002 hPa
Stanje: Megla ki zmrzuje
Oblačnost: Delno oblačno
Vidljivost: 1 km
Podrobnosti o oblakih: Delno oblačno 91 m
2021/01/25 07:00 LJMB 250700Z VRB02KT 0800 R32/0500U FZFG SCT003 M04/M04 Q1002 R32/CLRD//
 
LJPZ - Portoroz, Slovenia
Oddaljenost od postaje: SW 130km
Podatki zajeti: 25/01/2021 08:00
Jasno
Jasno
 Veter iz smeri ESE
Veter: ESE 9 km/h
Temperatura: 3°C
Občutek mraza zaradi vetra: 0°C
Rosišče: -1°C
Vlažnost: 75%
Tlak: 1000 hPa
Stanje: Jasno
Vidljivost: večja od 10 km
2021/01/25 07:00 LJPZ 250700Z 12005KT CAVOK 03/M01 Q1000
LJCE - Cerklje, Slovenia
Oddaljenost od postaje: ESE 49km
Podatki zajeti: 25/01/2021 08:00
Megla ki zmrzuje, Oblačno
Megla ki zmrzuje, Oblačno
 Veter iz smeri SSW
Veter: SSW 4 km/h
Temperatura: -2°C
Rosišče: -2°C
Vlažnost: 100%
Tlak: 1003 hPa
Stanje: Megla ki zmrzuje
Oblačnost: Oblačno
Vidljivost: 0 km
Podrobnosti o oblakih: Oblačno 61 m
2021/01/25 07:00 LJCE 250700Z 20002KT 0200 FZFG VV002 M02/M02 Q1003 RMK RED
 
LDZA - Zagreb/Pleso, Croatia
Oddaljenost od postaje: ESE 96km
Podatki zajeti: 25/01/2021 08:00
Megla v pasovih, Delno oblačno
Megla v pasovih, Delno oblačno
 Veter iz smeri calm
Veter: Calm
Temperatura: -1°C
Rosišče: -2°C
Vlažnost: 93%
Tlak: 1003 hPa
Stanje: Patches of Fog
Oblačnost: Delno oblačno
Vidljivost: 1 km
2021/01/25 07:00 LDZA 250700Z 00000KT 1000 R04/P2000N R22/0400D BCFG NSC M01/M02 Q1003 R04/29//95 BECMG CAVOK
LDRI - Rijeka/Omisalj, Croatia
Oddaljenost od postaje: SSW 109km
Podatki zajeti: 25/01/2021 08:00
Rahlo oblačno
Rahlo oblačno
 Veter iz smeri ESE
Veter: ESE 13 km/h
Temperatura: 3°C
Občutek mraza zaradi vetra: -1°C
Rosišče: -1°C
Vlažnost: 75%
Tlak: 1002 hPa
Oblačnost: Rahlo oblačno
Vidljivost: 10 km
Podrobnosti o oblakih: Rahlo oblačno 1524 m
2021/01/25 07:00 LDRI 250700Z 12007KT 9999 FEW050 03/M01 Q1002
 
LDPL - Pula, Croatia
Oddaljenost od postaje: SSW 164km
Podatki zajeti: 25/01/2021 08:00
Rahlo oblačno
Rahlo oblačno
 Veter iz smeri E
Veter: E 13 km/h
Temperatura: 5°C
Občutek mraza zaradi vetra: 2°C
Rosišče: 2°C
Vlažnost: 81%
Tlak: 1001 hPa
Oblačnost: Rahlo oblačno
Vidljivost: 10 km
Podrobnosti o oblakih: Rahlo oblačno 762 m
2021/01/25 07:00 LDPL 250700Z 10007KT 9999 FEW025 05/02 Q1001 NOSIG
LOWK - Klagenfurt(Civ/M, Austria
Oddaljenost od postaje: NW 76km
Podatki zajeti: 25/01/2021 08:20
Pretežno oblačno
Pretežno oblačno
 Veter iz smeri spremenljiv
Veter: spremenljiv 2 km/h
Temperatura: -3°C
Rosišče: -5°C
Vlažnost: 86%
Tlak: 1002 hPa
Oblačnost: Pretežno oblačno
Vidljivost: 10 km
Podrobnosti o oblakih: Rahlo oblačno 305 m
Pretežno oblačno 457 m
2021/01/25 07:20 LOWK 250720Z VRB01KT 9999 FEW010 BKN015 M03/M05 Q1002 R10L/29//95 TEMPO BKN012
 
LOWG - Graz (mil/Civ), Austria
Oddaljenost od postaje: NNE 100km
Podatki zajeti: 25/01/2021 08:20
Megla ki zmrzuje, Oblačno
Megla ki zmrzuje, Oblačno
 Veter iz smeri spremenljiv
Veter: spremenljiv 2 km/h
Temperatura: -4°C
Rosišče: -4°C
Vlažnost: 100%
Tlak: 1001 hPa
Stanje: Megla ki zmrzuje
Oblačnost: Oblačno
Vidljivost: 0 km
Podrobnosti o oblakih: Oblačno 61 m
2021/01/25 07:20 LOWG 250720Z VRB01KT 0250 R17/0350N R35/0300N FZFG VV002 M04/M04 Q1001 R17/19//94 TEMPO 0500 FEW003
LOAN - Wr.neustadt East, Austria
Oddaljenost od postaje: NNE 212km
Podatki zajeti: 24/01/2021 17:00
Ni posodobljen
Pretežno oblačno
Pretežno oblačno
 Veter iz smeri W
Veter: W 13 km/h
Oblačnost: Pretežno oblačno
Podrobnosti o oblakih: Rahlo oblačno 1067 m
Delno oblačno 2134 m
Pretežno oblačno 3048 m
2021/01/24 16:00 LOAN 241600Z 26007KT 30KM FEW035CU SCT070SC BKN100AC
 
LIPQ - Ronchi Legionari, Italy
Oddaljenost od postaje: SW 35km
Podatki zajeti: 25/01/2021 08:20
Pretežno oblačno
Pretežno oblačno
 Veter iz smeri NNE
Veter: NNE 7 km/h
Temperatura: 2°C
Občutek mraza zaradi vetra: 0°C
Rosišče: 0°C
Vlažnost: 87%
Tlak: 1001 hPa
Oblačnost: Pretežno oblačno
Vidljivost: 10 km
Podrobnosti o oblakih: Pretežno oblačno 3353 m
2021/01/25 07:20 LIPQ 250720Z AUTO 03004KT 9999 BKN110/// 02/00 Q1001
LIVT - Trieste, Italy
Oddaljenost od postaje: WSW 109km
Podatki zajeti: 20/01/2021 18:55
Ni posodobljen
Meglica, Pretežno oblačno
Meglica, Pretežno oblačno
 Veter iz smeri spremenljiv
Veter: spremenljiv 0 km/h
Temperatura: 7°C
Rosišče: 6°C
Vlažnost: 93%
Tlak: 1020 hPa
Stanje: Meglica
Oblačnost: Pretežno oblačno
Vidljivost: 5 km
Podrobnosti o oblakih: Pretežno oblačno 1219 m
2021/01/20 17:55 LIVT 201755Z /////KT 5000 BR BKN040 07/06 Q1020 RMK OVC OVC060 QUK / QUL / VIS MAR 5 KM VIS MIN 5000
 
LIVO - Tarvisio, Italy
Oddaljenost od postaje: NNW 49km
Podatki zajeti: 20/01/2021 18:55
Ni posodobljen
Pretežno oblačno
Pretežno oblačno
 Veter iz smeri W
Veter: W 6 km/h
Temperatura: 3°C
Rosišče: 1°C
Vlažnost: 87%
Tlak: 1014 hPa
Oblačnost: Pretežno oblačno
Vidljivost: 10 km
Podrobnosti o oblakih: Pretežno oblačno 1067 m
2021/01/20 17:55 LIVO 201755Z 28003KT 9999 BKN035 03/01 Q1014 RMK BKN VIS MIN 9999
LIPZ - Venezia/Tessera, Italy
Oddaljenost od postaje: WSW 217km
Podatki zajeti: 25/01/2021 08:20
Jasno
Jasno
 Veter iz smeri NE
Veter: NE 15 km/h
Temperatura: 1°C
Občutek mraza zaradi vetra: -3°C
Rosišče: -1°C
Vlažnost: 87%
Tlak: 1000 hPa
Stanje: Jasno
Vidljivost: večja od 10 km
2021/01/25 07:20 LIPZ 250720Z 05008KT CAVOK 01/M01 Q1000 NOSIG
 
LHSM - Balaton, Hungary
Oddaljenost od postaje: ENE 177km
Podatki zajeti: 25/01/2021 07:45
Jasno
Jasno
 Veter iz smeri WSW
Veter: WSW 7 km/h
Temperatura: 1°C
Občutek mraza zaradi vetra: -2°C
Rosišče: 0°C
Vlažnost: 93%
Tlak: 1002 hPa
Stanje: Jasno
Vidljivost: večja od 10 km
2021/01/25 06:45 LHSM 250645Z AUTO 24004KT 210V280 CAVOK 01/M00 Q1002 NOSIG